Time;durP1;ratioP1;P1;durP2;ratioP2;P2;SDS_P1;SDS_P2;PMS_P1;PMS_P2;Temp;Humidity;BMP_temperature;BMP_pressure;BME280_temperature;BME280_humidity;BME280_pressure;Samples;Min_cycle;Max_cycle;Signal;HPM_P1;HPM_P2
2024/03/01 00:00:36;;;;;;;10.07;6.78;;;;;;;8.70;100.00;100075.28;5108544;28;20040;-68
2024/03/01 00:03:24;;;;;;;13.05;6.90;;;;;;;8.69;100.00;100076.38;5082193;28;20036;-69
2024/03/01 00:06:13;;;;;;;10.88;7.28;;;;;;;8.67;100.00;100081.25;5096574;28;20039;-68
2024/03/01 00:09:02;;;;;;;11.88;7.10;;;;;;;8.69;100.00;100075.56;5111072;28;20043;-68
2024/03/01 00:11:50;;;;;;;10.52;6.80;;;;;;;8.68;100.00;100071.19;5091502;28;20158;-67
2024/03/01 00:14:38;;;;;;;9.43;5.93;;;;;;;8.66;100.00;100071.50;5106326;27;20061;-66
2024/03/01 00:17:26;;;;;;;12.40;7.50;;;;;;;8.66;100.00;100078.81;5110478;28;20047;-60
2024/03/01 00:20:14;;;;;;;12.95;7.72;;;;;;;8.65;100.00;100071.75;5133525;28;20081;-62
2024/03/01 00:23:02;;;;;;;13.05;7.63;;;;;;;8.63;100.00;100066.59;5112519;28;20387;-63
2024/03/01 00:25:50;;;;;;;14.57;8.05;;;;;;;8.63;100.00;100068.50;5094235;28;20055;-61
2024/03/01 00:28:38;;;;;;;12.65;7.25;;;;;;;8.62;100.00;100064.16;5093008;28;20043;-68
2024/03/01 00:31:26;;;;;;;12.60;7.22;;;;;;;8.63;100.00;100057.63;5106175;28;20390;-67
2024/03/01 00:34:14;;;;;;;13.35;8.10;;;;;;;8.64;100.00;100054.66;5132805;27;20047;-66
2024/03/01 00:37:02;;;;;;;14.02;8.23;;;;;;;8.65;100.00;100055.47;5092072;28;20052;-68
2024/03/01 00:39:50;;;;;;;9.90;6.95;;;;;;;8.67;100.00;100051.38;5083447;28;20124;-68
2024/03/01 00:42:39;;;;;;;11.38;7.28;;;;;;;8.69;100.00;100051.13;5098268;27;20047;-69
2024/03/01 00:45:27;;;;;;;12.77;7.82;;;;;;;8.69;100.00;100040.25;5108632;28;20027;-68
2024/03/01 00:48:15;;;;;;;12.55;7.60;;;;;;;8.69;100.00;100040.25;5095575;28;20062;-68
2024/03/01 00:51:04;;;;;;;12.07;7.88;;;;;;;8.70;100.00;100042.69;5096538;28;20131;-68
2024/03/01 00:53:52;;;;;;;12.77;8.65;;;;;;;8.69;100.00;100034.81;5090913;28;20391;-68
2024/03/01 00:56:39;;;;;;;13.63;7.80;;;;;;;8.72;100.00;100045.13;5074884;28;20040;-68
2024/03/01 00:59:27;;;;;;;12.45;7.35;;;;;;;8.70;100.00;100034.53;5063080;28;20044;-68
2024/03/01 01:02:16;;;;;;;11.25;8.02;;;;;;;8.71;100.00;100038.09;5077896;28;20484;-68
2024/03/01 01:05:04;;;;;;;12.68;8.30;;;;;;;8.72;100.00;100037.78;5068891;28;20094;-67
2024/03/01 01:07:52;;;;;;;12.25;7.60;;;;;;;8.72;100.00;100032.34;5094302;28;20039;-68
2024/03/01 01:10:40;;;;;;;12.27;7.93;;;;;;;8.76;100.00;100029.13;5090600;28;20036;-68
2024/03/01 01:13:29;;;;;;;12.48;7.70;;;;;;;8.76;100.00;100023.69;5091644;28;20055;-68
2024/03/01 01:16:17;;;;;;;14.57;7.97;;;;;;;8.75;100.00;100022.84;5080271;28;20043;-67
2024/03/01 01:19:05;;;;;;;14.55;6.88;;;;;;;8.78;100.00;100021.47;5091655;28;20043;-68
2024/03/01 01:21:54;;;;;;;11.75;7.60;;;;;;;8.77;100.00;100017.97;5076231;28;20040;-67
2024/03/01 01:24:42;;;;;;;11.20;8.05;;;;;;;8.75;100.00;100017.41;5076935;28;20052;-68
2024/03/01 01:27:30;;;;;;;11.50;7.53;;;;;;;8.76;100.00;100010.09;5109647;28;20104;-68
2024/03/01 01:30:18;;;;;;;11.73;7.03;;;;;;;8.76;100.00;100013.63;5110593;28;20103;-68
2024/03/01 01:33:06;;;;;;;12.63;7.70;;;;;;;8.76;100.00;100005.47;5110601;28;20123;-68
2024/03/01 01:35:54;;;;;;;12.07;7.82;;;;;;;8.77;100.00;100004.38;5125044;28;20051;-67
2024/03/01 01:38:42;;;;;;;11.70;7.50;;;;;;;8.76;100.00;99999.25;5082020;28;20550;-68
2024/03/01 01:41:32;;;;;;;11.18;6.65;;;;;;;8.76;100.00;99997.34;5063175;28;20044;-67
2024/03/01 01:44:20;;;;;;;13.10;7.22;;;;;;;8.77;100.00;100004.38;5094148;28;20048;-68
2024/03/01 01:47:08;;;;;;;11.88;6.93;;;;;;;8.79;100.00;99995.97;5094755;28;20133;-68
2024/03/01 01:49:57;;;;;;;13.18;7.53;;;;;;;8.76;100.00;99994.63;5093901;28;20135;-68
2024/03/01 01:52:45;;;;;;;11.98;7.07;;;;;;;8.77;100.00;99993.50;5082311;28;20052;-68
2024/03/01 01:55:33;;;;;;;11.10;7.18;;;;;;;8.77;100.00;99987.28;5085932;28;20063;-68
2024/03/01 01:58:22;;;;;;;10.30;6.47;;;;;;;8.79;100.00;99980.47;5114785;28;20039;-68
2024/03/01 02:01:10;;;;;;;11.35;7.05;;;;;;;8.79;100.00;99974.22;5068625;28;20049;-68
2024/03/01 02:03:58;;;;;;;12.18;7.50;;;;;;;8.78;100.00;99978.84;5091966;28;20417;-68
2024/03/01 02:06:46;;;;;;;10.95;7.25;;;;;;;8.76;100.00;99981.03;5075209;28;20556;-68
2024/03/01 02:09:35;;;;;;;15.10;7.97;;;;;;;8.77;100.00;99974.50;5092611;28;20039;-68
2024/03/01 02:12:23;;;;;;;10.00;6.28;;;;;;;8.76;100.00;99981.03;5090995;28;20044;-68
2024/03/01 02:15:11;;;;;;;11.35;7.22;;;;;;;8.78;100.00;99976.16;5109880;28;20039;-68
2024/03/01 02:17:59;;;;;;;12.95;8.02;;;;;;;8.77;100.00;99974.50;5109134;28;20059;-68
2024/03/01 02:21:02;;;;;;;10.93;7.00;;;;;;;8.73;100.00;99960.69;5080935;28;20451;-68
2024/03/01 02:23:50;;;;;;;10.55;6.72;;;;;;;8.71;100.00;99962.84;5109915;28;20134;-68
2024/03/01 02:26:38;;;;;;;13.50;6.97;;;;;;;8.70;100.00;99952.25;5110492;28;20593;-68
2024/03/01 02:29:26;;;;;;;10.98;7.43;;;;;;;8.69;100.00;99947.94;5098511;27;20046;-68
2024/03/01 02:32:15;;;;;;;12.57;7.53;;;;;;;8.68;100.00;99947.13;5093589;28;20055;-69
2024/03/01 02:35:03;;;;;;;12.65;6.82;;;;;;;8.68;100.00;99941.69;5099717;28;20062;-69
2024/03/01 02:37:51;;;;;;;11.45;7.05;;;;;;;8.68;100.00;99935.41;5106250;27;20104;-68
2024/03/01 02:40:40;;;;;;;10.68;7.30;;;;;;;8.67;100.00;99921.03;5105287;28;20482;-68
2024/03/01 02:43:29;;;;;;;10.48;7.18;;;;;;;8.67;100.00;99920.22;5098291;28;20126;-67
2024/03/01 02:46:17;;;;;;;11.48;7.00;;;;;;;8.65;100.00;99919.69;5097530;28;20043;-67
2024/03/01 02:49:05;;;;;;;11.95;6.68;;;;;;;8.65;100.00;99906.13;5105368;28;20039;-68
2024/03/01 02:51:53;;;;;;;10.63;6.07;;;;;;;8.66;100.00;99915.88;5097183;28;20185;-68
2024/03/01 02:54:41;;;;;;;10.82;6.47;;;;;;;8.67;100.00;99912.09;5070906;28;20047;-68
2024/03/01 02:57:29;;;;;;;9.13;5.45;;;;;;;8.67;100.00;99907.47;5095929;27;20062;-68
2024/03/01 03:00:19;;;;;;;10.30;5.90;;;;;;;8.68;100.00;99908.25;5118216;27;20047;-68
2024/03/01 03:03:07;;;;;;;9.68;5.60;;;;;;;8.69;100.00;99909.91;5072473;28;20121;-67
2024/03/01 03:05:54;;;;;;;10.43;5.40;;;;;;;8.69;100.00;99909.91;5093282;28;20488;-67
2024/03/01 03:08:43;;;;;;;7.72;4.75;;;;;;;8.71;100.00;99910.44;5078126;28;20051;-68
2024/03/01 03:11:31;;;;;;;9.88;5.18;;;;;;;8.71;100.00;99907.72;5081787;28;20391;-68
2024/03/01 03:14:19;;;;;;;8.20;4.85;;;;;;;8.72;100.00;99906.63;5093555;28;20102;-68
2024/03/01 03:17:07;;;;;;;7.22;4.60;;;;;;;8.71;100.00;99907.72;5113211;28;20039;-67
2024/03/01 03:19:55;;;;;;;8.38;4.50;;;;;;;8.70;100.00;99908.81;5098876;28;20039;-68
2024/03/01 03:22:46;;;;;;;7.82;4.13;;;;;;;8.70;100.00;99909.59;5096513;28;20092;-68
2024/03/01 03:25:36;;;;;;;6.95;4.03;;;;;;;8.77;100.00;99908.50;5097689;28;20134;-68
2024/03/01 03:28:24;;;;;;;6.78;4.10;;;;;;;8.72;100.00;99909.34;5084099;28;20060;-68
2024/03/01 03:31:12;;;;;;;7.30;4.68;;;;;;;8.72;100.00;99910.16;5112818;28;20058;-68
2024/03/01 03:34:01;;;;;;;6.15;3.78;;;;;;;8.71;100.00;99907.72;5105196;28;20039;-67
2024/03/01 03:36:49;;;;;;;5.50;3.50;;;;;;;8.74;100.00;99915.31;5116382;27;20486;-67
2024/03/01 03:39:37;;;;;;;6.97;3.50;;;;;;;8.78;100.00;99918.28;5078036;28;20140;-68
2024/03/01 03:42:25;;;;;;;4.82;3.17;;;;;;;8.80;100.00;99913.38;5096262;28;20501;-67
2024/03/01 03:45:13;;;;;;;5.22;3.05;;;;;;;8.90;100.00;99916.06;5083317;28;20056;-68
2024/03/01 03:48:02;;;;;;;5.07;3.10;;;;;;;8.98;100.00;99930.97;5092398;28;20040;-67
2024/03/01 03:50:50;;;;;;;8.20;3.25;;;;;;;8.91;100.00;99953.81;5066624;28;20048;-67
2024/03/01 03:53:38;;;;;;;3.78;2.47;;;;;;;8.86;100.00;99974.75;5081990;27;20039;-67
2024/03/01 03:56:26;;;;;;;4.10;2.30;;;;;;;8.70;100.00;99982.13;5111809;28;20414;-68
2024/03/01 03:59:14;;;;;;;1.85;1.67;;;;;;;8.49;100.00;99989.50;5097174;28;20047;-68
2024/03/01 04:02:02;;;;;;;2.15;1.48;;;;;;;8.33;100.00;100002.28;5111514;28;20480;-68
2024/03/01 04:04:50;;;;;;;1.25;1.20;;;;;;;8.21;100.00;100001.75;5110658;28;20520;-68
2024/03/01 04:07:38;;;;;;;1.70;1.20;;;;;;;8.14;100.00;100021.00;5115591;27;20047;-67
2024/03/01 04:10:26;;;;;;;1.67;1.40;;;;;;;8.02;100.00;100013.13;5115601;27;20051;-67
2024/03/01 04:13:14;;;;;;;2.95;1.50;;;;;;;7.96;100.00;100016.09;5115999;27;20078;-68
2024/03/01 04:16:05;;;;;;;1.88;1.33;;;;;;;7.94;100.00;100019.09;5112968;27;20055;-68
2024/03/01 04:18:53;;;;;;;1.48;1.38;;;;;;;7.94;100.00;100016.38;5097059;28;20043;-68
2024/03/01 04:21:42;;;;;;;1.40;1.30;;;;;;;7.96;100.00;100019.66;5073381;28;20545;-68
2024/03/01 04:24:31;;;;;;;1.63;1.38;;;;;;;7.92;100.00;100017.75;5075711;28;20055;-68
2024/03/01 04:27:19;;;;;;;1.40;1.30;;;;;;;7.95;100.00;100012.59;5100010;28;20082;-67
2024/03/01 04:30:10;;;;;;;1.42;1.33;;;;;;;7.96;100.00;100016.94;5082808;28;20200;-67
2024/03/01 04:32:58;;;;;;;3.00;1.50;;;;;;;7.99;100.00;100029.94;5084838;28;20107;-67
2024/03/01 04:35:46;;;;;;;2.72;1.50;;;;;;;8.03;100.00;100033.75;5116389;28;20475;-64
2024/03/01 04:38:34;;;;;;;2.50;1.83;;;;;;;8.02;100.00;100032.13;5109501;28;20396;-67
2024/03/01 04:41:22;;;;;;;2.00;1.80;;;;;;;8.01;100.00;100041.34;5107389;27;20121;-67
2024/03/01 04:44:10;;;;;;;3.63;2.00;;;;;;;8.01;100.00;100051.38;5096260;28;20044;-67
2024/03/01 04:46:58;;;;;;;1.60;1.50;;;;;;;8.00;100.00;100050.56;5123742;28;20105;-64
2024/03/01 04:49:46;;;;;;;2.70;1.80;;;;;;;7.95;100.00;100066.03;5101982;28;20126;-68
2024/03/01 04:52:35;;;;;;;1.77;1.67;;;;;;;7.94;100.00;100070.66;5110886;28;20051;-68
2024/03/01 04:55:23;;;;;;;3.38;1.90;;;;;;;7.92;100.00;100078.22;5082333;28;20048;-68
2024/03/01 04:58:11;;;;;;;1.77;1.63;;;;;;;7.89;100.00;100071.44;5110643;28;20052;-68
2024/03/01 05:01:00;;;;;;;2.90;2.00;;;;;;;7.86;100.00;100087.41;5080704;28;20040;-68
2024/03/01 05:03:48;;;;;;;2.15;1.90;;;;;;;7.86;100.00;100092.84;5080314;27;20039;-68
2024/03/01 05:06:37;;;;;;;3.13;1.95;;;;;;;7.85;100.00;100097.47;5090395;28;20097;-68
2024/03/01 05:09:25;;;;;;;3.35;1.90;;;;;;;7.83;100.00;100099.63;5110725;28;20059;-68
2024/03/01 05:12:13;;;;;;;2.67;2.20;;;;;;;7.85;100.00;100099.38;5093715;28;20067;-68
2024/03/01 05:15:04;;;;;;;4.00;2.28;;;;;;;7.85;100.00;100097.47;5094747;28;20051;-67
2024/03/01 05:17:52;;;;;;;4.22;2.42;;;;;;;7.84;100.00;100106.69;5079122;28;20039;-68
2024/03/01 05:20:41;;;;;;;2.30;2.05;;;;;;;7.84;100.00;100116.69;5095676;28;20137;-68
2024/03/01 05:23:30;;;;;;;3.13;2.17;;;;;;;7.82;100.00;100114.28;5095802;28;20086;-67
2024/03/01 05:26:21;;;;;;;4.45;2.60;;;;;;;7.79;100.00;100122.97;5096308;28;20047;-67
2024/03/01 05:29:09;;;;;;;6.15;2.60;;;;;;;7.78;100.00;100118.59;5108803;28;20128;-67
2024/03/01 05:31:57;;;;;;;3.08;2.30;;;;;;;7.80;100.00;100121.06;5089255;28;20043;-68
2024/03/01 05:34:45;;;;;;;4.15;2.20;;;;;;;7.78;100.00;100117.78;5075665;28;20040;-68
2024/03/01 05:37:33;;;;;;;3.40;2.40;;;;;;;7.77;100.00;100125.13;5064527;28;20129;-69
2024/03/01 05:40:22;;;;;;;4.05;2.40;;;;;;;7.77;100.00;100127.81;5074954;28;20047;-69
2024/03/01 05:43:10;;;;;;;4.45;2.53;;;;;;;7.78;100.00;100128.63;5101916;28;20177;-68
2024/03/01 05:46:04;;;;;;;4.82;2.50;;;;;;;7.77;100.00;100132.41;5097814;28;20066;-68
2024/03/01 05:48:53;;;;;;;5.10;2.53;;;;;;;7.76;100.00;100142.44;5076423;28;20201;-65
2024/03/01 05:51:41;;;;;;;6.70;2.67;;;;;;;7.70;100.00;100143.53;5091609;28;20453;-68
2024/03/01 05:54:29;;;;;;;5.65;2.70;;;;;;;7.68;100.00;100142.97;5070988;28;20039;-68
2024/03/01 05:57:17;;;;;;;4.72;2.60;;;;;;;7.65;100.00;100146.22;5074976;28;20036;-68
2024/03/01 06:00:17;;;;;;;3.90;2.58;;;;;;;7.60;100.00;100144.31;5100932;28;20039;-68
2024/03/01 06:03:06;;;;;;;5.15;2.40;;;;;;;7.61;100.00;100145.94;5112063;28;20046;-68
2024/03/01 06:05:55;;;;;;;4.13;2.03;;;;;;;7.62;100.00;100152.97;5093415;28;20485;-68
2024/03/01 06:08:43;;;;;;;5.47;2.33;;;;;;;7.62;100.00;100158.38;5089412;28;20058;-69
2024/03/01 06:11:31;;;;;;;5.55;2.33;;;;;;;7.64;100.00;100166.28;5070943;28;20153;-68
2024/03/01 06:14:19;;;;;;;5.45;2.25;;;;;;;7.58;100.00;100170.06;5104793;28;20032;-69
2024/03/01 06:17:07;;;;;;;7.40;2.50;;;;;;;7.56;100.00;100175.72;5112559;28;20036;-68
2024/03/01 06:19:55;;;;;;;4.55;2.22;;;;;;;7.55;100.00;100173.28;5101420;28;20055;-68
2024/03/01 06:22:44;;;;;;;5.13;2.33;;;;;;;7.52;100.00;100173.81;5110862;27;20039;-68
2024/03/01 06:25:31;;;;;;;5.93;2.50;;;;;;;7.48;100.00;100184.38;4735312;28;9999943;-67
2024/03/01 06:28:20;;;;;;;6.63;2.65;;;;;;;7.46;100.00;100200.88;5093676;28;20035;-68
2024/03/01 06:31:08;;;;;;;5.07;2.40;;;;;;;7.50;100.00;100200.34;5102299;27;20035;-68
2024/03/01 06:33:56;;;;;;;7.45;2.90;;;;;;;7.49;100.00;100191.41;5114800;27;20424;-67
2024/03/01 06:36:44;;;;;;;6.15;3.10;;;;;;;7.51;100.00;100194.69;5130251;27;20058;-67
2024/03/01 06:39:34;;;;;;;5.55;3.08;;;;;;;7.53;100.00;100205.25;5116298;27;20035;-69
2024/03/01 06:42:22;;;;;;;5.63;3.10;;;;;;;7.54;100.00;100199.56;5135893;27;20121;-68
2024/03/01 06:45:12;;;;;;;9.60;3.92;;;;;;;7.58;100.00;100197.97;5130611;27;20062;-68
2024/03/01 06:48:01;;;;;;;7.80;3.80;;;;;;;7.56;100.00;100197.41;5095029;28;20314;-68
2024/03/01 06:50:49;;;;;;;7.30;4.68;;;;;;;7.54;100.00;100215.84;5082685;28;20040;-68
2024/03/01 06:53:37;;;;;;;6.60;3.60;;;;;;;7.53;100.00;100211.50;5109931;28;20465;-68
2024/03/01 06:56:25;;;;;;;7.78;3.75;;;;;;;7.53;100.00;100216.94;5094917;28;20043;-68
2024/03/01 06:59:13;;;;;;;7.32;4.32;;;;;;;7.56;100.00;100219.09;5106715;28;20035;-67
2024/03/01 07:02:03;;;;;;;9.18;5.28;;;;;;;7.53;100.00;100222.34;5061570;28;20522;-69
2024/03/01 07:04:51;;;;;;;8.57;4.68;;;;;;;7.56;100.00;100223.72;5075460;28;20048;-68
2024/03/01 07:07:39;;;;;;;10.05;5.40;;;;;;;7.57;100.00;100226.16;5094662;28;20075;-69
2024/03/01 07:10:27;;;;;;;9.32;4.70;;;;;;;7.52;100.00;100223.41;5076447;28;20048;-68
2024/03/01 07:13:15;;;;;;;10.00;4.97;;;;;;;7.50;100.00;100230.97;5126946;27;20375;-68
2024/03/01 07:16:03;;;;;;;10.10;5.70;;;;;;;7.50;100.00;100241.81;5130693;27;20054;-68
2024/03/01 07:18:52;;;;;;;7.38;4.55;;;;;;;7.51;100.00;100243.47;5082351;28;20055;-69
2024/03/01 07:21:40;;;;;;;11.75;6.07;;;;;;;7.50;100.00;100241.81;5079405;27;20055;-68
2024/03/01 07:24:29;;;;;;;8.52;5.22;;;;;;;7.48;100.00;100244.00;5094272;28;20039;-69
2024/03/01 07:27:17;;;;;;;12.15;6.38;;;;;;;7.50;100.00;100238.31;5080827;28;20039;-68
2024/03/01 07:30:06;;;;;;;12.88;6.07;;;;;;;7.52;100.00;100228.03;5106635;28;20040;-69
2024/03/01 07:32:54;;;;;;;9.43;5.70;;;;;;;7.51;100.00;100227.22;5075579;28;20085;-68
2024/03/01 07:35:42;;;;;;;13.60;5.97;;;;;;;7.52;100.00;100228.03;5080569;28;21128;-68
2024/03/01 07:38:30;;;;;;;17.05;6.85;;;;;;;7.59;100.00;100221.28;5109749;28;20039;-68
2024/03/01 07:41:21;;;;;;;10.30;6.20;;;;;;;7.57;100.00;100220.72;5109065;28;20047;-68
2024/03/01 07:44:09;;;;;;;13.63;6.53;;;;;;;7.59;100.00;100229.41;5074330;28;20036;-68
2024/03/01 07:46:58;;;;;;;10.63;6.40;;;;;;;7.53;100.00;100230.47;5078762;28;20462;-69
2024/03/01 07:49:49;;;;;;;11.05;6.03;;;;;;;7.50;100.00;100228.28;5074392;28;20048;-69
2024/03/01 07:52:37;;;;;;;12.65;6.45;;;;;;;7.49;100.00;100232.06;5074542;28;20108;-68
2024/03/01 07:55:25;;;;;;;9.98;6.00;;;;;;;7.48;100.00;100227.75;5094152;28;20051;-68
2024/03/01 07:58:13;;;;;;;11.93;6.70;;;;;;;7.47;100.00;100237.75;5109115;28;20047;-71
2024/03/01 08:01:01;;;;;;;14.48;6.25;;;;;;;7.48;100.00;100244.00;5089108;28;20075;-68
2024/03/01 08:03:50;;;;;;;15.52;6.68;;;;;;;7.62;100.00;100242.44;5076420;28;20035;-68
2024/03/01 08:06:41;;;;;;;11.35;5.88;;;;;;;7.55;100.00;100235.63;5106769;28;20103;-67
2024/03/01 08:09:36;;;;;;;14.32;6.00;;;;;;;7.56;100.00;100246.22;5074725;28;20128;-68
2024/03/01 08:12:24;;;;;;;11.82;6.60;;;;;;;7.56;100.00;100242.69;5088436;28;20071;-68
2024/03/01 08:15:22;;;;;;;11.75;6.60;;;;;;;7.57;100.00;100255.16;5099299;27;20036;-68
2024/03/01 08:18:17;;;;;;;21.17;8.43;;;;;;;7.58;100.00;100249.47;5084732;27;20051;-69
2024/03/01 08:21:06;;;;;;;17.13;7.43;;;;;;;7.58;100.00;100241.34;5059584;28;20048;-69
2024/03/01 08:23:55;;;;;;;24.65;8.55;;;;;;;7.61;100.00;100238.09;5063468;28;20455;-68
2024/03/01 08:26:44;;;;;;;26.75;9.02;;;;;;;7.68;100.00;100238.69;5118879;27;20046;-69
2024/03/01 08:29:36;;;;;;;20.10;8.35;;;;;;;7.76;100.00;100240.06;5092838;28;20055;-68
2024/03/01 08:32:41;;;;;;;27.35;9.40;;;;;;;7.81;100.00;100231.97;5096716;28;20172;-69
2024/03/01 08:35:30;;;;;;;18.40;7.15;;;;;;;7.77;100.00;100230.03;5112412;27;20038;-70
2024/03/01 08:38:41;;;;;;;19.05;8.32;;;;;;;7.76;100.00;100231.94;5093021;28;20031;-70
2024/03/01 08:41:29;;;;;;;22.77;8.05;;;;;;;7.81;100.00;100237.38;5111821;28;20043;-68
2024/03/01 08:44:41;;;;;;;30.25;9.43;;;;;;;7.96;100.00;100233.94;5094612;28;20040;-70
2024/03/01 08:47:43;;;;;;;17.17;6.78;;;;;;;7.91;100.00;100255.59;5059776;28;20095;-68
2024/03/01 08:50:41;;;;;;;23.55;8.27;;;;;;;8.00;100.00;100254.03;5101807;28;20100;-68
2024/03/01 08:53:35;;;;;;;22.75;8.40;;;;;;;8.19;100.00;100253.56;5094616;28;20036;-69
2024/03/01 08:56:33;;;;;;;11.60;5.93;;;;;;;7.94;100.00;100252.38;5111913;28;20058;-69
2024/03/01 08:59:45;;;;;;;14.70;6.65;;;;;;;7.97;100.00;100253.75;5082059;28;20093;-67
2024/03/01 09:02:46;;;;;;;24.38;7.70;;;;;;;8.08;100.00;100248.09;5112979;28;20048;-68
2024/03/01 09:05:38;;;;;;;12.93;5.97;;;;;;;7.95;100.00;100262.13;5107370;28;20059;-69
2024/03/01 09:08:32;;;;;;;17.88;6.65;;;;;;;7.93;100.00;100267.00;5112259;28;20126;-68
2024/03/01 09:11:20;;;;;;;15.00;6.00;;;;;;;7.93;100.00;100267.00;5078147;28;20216;-69
2024/03/01 09:14:20;;;;;;;11.20;5.40;;;;;;;7.94;100.00;100259.69;5082588;28;20440;-69
2024/03/01 09:17:12;;;;;;;24.50;7.97;;;;;;;8.10;100.00;100264.94;5095032;28;20115;-68
2024/03/01 09:20:01;;;;;;;29.38;8.50;;;;;;;8.30;100.00;100256.03;4735062;28;10000153;-70
2024/03/01 09:22:49;;;;;;;10.52;5.15;;;;;;;8.36;100.00;100247.91;5075396;28;20077;-69
2024/03/01 09:25:49;;;;;;;9.43;4.50;;;;;;;8.24;100.00;100242.72;5077029;28;20132;-68
2024/03/01 09:28:37;;;;;;;9.80;4.55;;;;;;;8.12;100.00;100237.53;5110757;28;20043;-68
2024/03/01 09:31:25;;;;;;;12.82;5.18;;;;;;;7.98;100.00;100250.75;5076137;28;20066;-68
2024/03/01 09:34:17;;;;;;;10.80;4.72;;;;;;;7.97;100.00;100248.31;5094387;28;20048;-68
2024/03/01 09:37:13;;;;;;;11.30;4.35;;;;;;;8.03;100.00;100242.66;5064519;28;20100;-69
2024/03/01 09:40:01;;;;;;;;;;;;;;;8.22;100.00;100236.72;5096401;28;20161;-69
2024/03/01 09:42:53;;;;;;;11.60;4.30;;;;;;;8.25;100.00;100233.47;5084636;28;20279;-69
2024/03/01 09:45:51;;;;;;;10.52;4.50;;;;;;;8.15;100.00;100236.16;5085023;28;20047;-68
2024/03/01 09:49:13;;;;;;;9.68;4.40;;;;;;;8.30;100.00;100236.22;5085495;28;20182;-69
2024/03/01 09:52:29;;;;;;;14.15;4.97;;;;;;;8.48;100.00;100235.75;5079486;28;20073;-69
2024/03/01 09:55:34;;;;;;;17.98;5.78;;;;;;;8.75;100.00;100234.69;5097216;28;20061;-68
2024/03/01 09:58:32;;;;;;;15.53;4.70;;;;;;;8.84;100.00;100235.00;5099881;28;20084;-69
2024/03/01 10:01:29;;;;;;;12.93;5.00;;;;;;;9.06;100.00;100223.84;5050172;28;20055;-69
2024/03/01 10:04:30;;;;;;;10.57;4.38;;;;;;;8.81;100.00;100227.38;5080061;28;20494;-69
2024/03/01 10:07:28;;;;;;;12.65;4.22;;;;;;;8.89;100.00;100224.13;5084668;28;20042;-69
2024/03/01 10:10:55;;;;;;;12.90;4.05;;;;;;;8.95;100.00;100223.84;5099843;27;20043;-70
2024/03/01 10:14:22;;;;;;;12.90;3.88;;;;;;;9.03;100.00;100227.13;5079308;28;20055;-69
2024/03/01 10:17:26;;;;;;;10.05;4.07;;;;;;;8.91;100.00;100220.03;5092759;28;20515;-69
2024/03/01 10:20:37;;;;;;;11.05;4.03;;;;;;;8.87;100.00;100220.84;5105284;28;20042;-70
2024/03/01 10:23:42;;;;;;;8.98;3.58;;;;;;;8.47;100.00;100217.84;5096763;28;20074;-70
2024/03/01 10:26:32;;;;;;;5.80;3.03;;;;;;;8.27;100.00;100228.59;5106972;28;20044;-69
2024/03/01 10:29:47;;;;;;;9.57;3.47;;;;;;;8.56;100.00;100220.81;5071008;28;20092;-70
2024/03/01 10:32:53;;;;;;;10.18;4.35;;;;;;;8.85;100.00;100213.00;5122985;27;20079;-70
2024/03/01 10:35:45;;;;;;;13.80;3.80;;;;;;;9.05;100.00;100206.72;5080331;28;20035;-70
2024/03/01 10:38:42;;;;;;;10.93;3.13;;;;;;;9.05;100.00;100208.66;5123468;27;20184;-70
2024/03/01 10:42:01;;;;;;;12.25;4.20;;;;;;;9.03;100.00;100191.78;5082820;28;20071;-70
2024/03/01 10:45:11;;;;;;;26.55;4.35;;;;;;;9.01;100.00;100183.09;5094640;27;20453;-69
2024/03/01 10:47:59;;;;;;;14.07;4.30;;;;;;;9.04;100.00;100168.94;5089443;28;20050;-69
2024/03/01 10:50:59;;;;;;;8.50;3.03;;;;;;;8.99;100.00;100174.41;5099564;28;20443;-68
2024/03/01 10:53:55;;;;;;;8.02;3.25;;;;;;;8.73;100.00;100168.97;5084920;28;20043;-68
2024/03/01 10:56:44;;;;;;;10.30;3.15;;;;;;;8.61;100.00;100171.13;5119277;27;20097;-69
2024/03/01 10:59:34;;;;;;;8.98;3.15;;;;;;;9.00;100.00;100155.13;5064498;28;20127;-72
2024/03/01 11:02:29;;;;;;;10.23;2.78;;;;;;;8.91;100.00;100151.31;5051202;28;20140;-70
2024/03/01 11:05:38;;;;;;;6.93;2.70;;;;;;;8.56;100.00;100154.84;5064995;28;20444;-70
2024/03/01 11:08:57;;;;;;;7.15;2.67;;;;;;;8.45;100.00;100145.91;5072947;28;20177;-68
2024/03/01 11:12:06;;;;;;;8.00;2.72;;;;;;;8.45;100.00;100135.84;5093306;28;20052;-68
2024/03/01 11:15:07;;;;;;;6.68;2.55;;;;;;;8.33;100.00;100127.13;5078598;28;20067;-68
2024/03/01 11:17:59;;;;;;;14.32;4.82;;;;;;;8.36;100.00;100129.28;5078847;28;20040;-68
2024/03/01 11:21:02;;;;;;;7.85;2.95;;;;;;;8.43;100.00;100124.44;5096420;28;20039;-68
2024/03/01 11:24:04;;;;;;;6.97;2.50;;;;;;;8.42;100.00;100133.69;5096699;28;20478;-68
2024/03/01 11:26:55;;;;;;;7.22;2.75;;;;;;;8.49;100.00;100123.38;5097898;28;20393;-68
2024/03/01 11:29:51;;;;;;;7.68;2.50;;;;;;;8.46;100.00;100118.47;5097980;28;20475;-69
2024/03/01 11:32:42;;;;;;;;;;;;;;;8.58;100.00;100115.47;5071884;28;20123;-69
2024/03/01 11:35:46;;;;;;;6.82;2.80;;;;;;;8.60;100.00;100104.34;5084909;28;20374;-68
2024/03/01 11:38:40;;;;;;;6.72;2.22;;;;;;;8.58;100.00;100093.75;5077256;28;20044;-69
2024/03/01 11:41:47;;;;;;;6.32;2.40;;;;;;;8.57;100.00;100085.91;4722395;28;10000434;-68
2024/03/01 11:44:49;;;;;;;6.65;2.50;;;;;;;8.61;100.00;100082.38;5076273;28;20055;-69
2024/03/01 11:47:43;;;;;;;7.03;2.42;;;;;;;8.63;100.00;100074.75;5054401;28;20036;-67
2024/03/01 11:50:48;;;;;;;5.57;2.63;;;;;;;8.68;100.00;100071.19;5108348;28;20042;-67
2024/03/01 11:54:01;;;;;;;8.70;2.67;;;;;;;8.88;100.00;100063.03;5073234;28;20040;-68
2024/03/01 11:57:21;;;;;;;10.73;2.33;;;;;;;8.98;100.00;100055.94;5091380;28;20082;-68
2024/03/01 12:00:33;;;;;;;8.98;2.80;;;;;;;9.06;100.00;100055.38;5043096;28;20047;-69
2024/03/01 12:03:32;;;;;;;7.20;2.75;;;;;;;9.27;100.00;100042.53;5060730;28;20492;-68
2024/03/01 12:06:43;;;;;;;10.65;2.72;;;;;;;9.14;100.00;100042.03;5089259;28;20052;-68
2024/03/01 12:09:58;;;;;;;10.23;3.00;;;;;;;9.11;100.00;100036.31;5064983;28;20189;-68
2024/03/01 12:12:51;;;;;;;5.05;2.28;;;;;;;9.08;100.00;100021.38;5069576;28;20051;-68
2024/03/01 12:15:47;;;;;;;7.57;2.42;;;;;;;8.98;100.00;100016.00;5063740;27;20044;-69
2024/03/01 12:18:45;;;;;;;8.30;2.50;;;;;;;8.90;100.00;100011.97;5108062;28;20051;-69
2024/03/01 12:22:00;;;;;;;4.38;2.33;;;;;;;8.86;100.00;100007.34;5079040;28;20058;-69
2024/03/01 12:24:49;;;;;;;6.72;2.28;;;;;;;8.90;100.00;99992.94;5079818;28;20051;-67
2024/03/01 12:27:46;;;;;;;4.57;2.13;;;;;;;8.97;100.00;100000.78;5073685;28;20043;-68
2024/03/01 12:30:37;;;;;;;6.97;2.35;;;;;;;8.99;100.00;100006.75;5086880;28;20056;-68
2024/03/01 12:33:47;;;;;;;9.30;2.40;;;;;;;9.07;100.00;99995.31;5092984;28;20062;-68
2024/03/01 12:37:12;;;;;;;4.97;2.40;;;;;;;9.07;100.00;100005.38;5108611;28;20442;-68
2024/03/01 12:40:16;;;;;;;9.18;3.28;;;;;;;9.14;100.00;100001.25;5075823;28;20474;-69
2024/03/01 12:43:17;;;;;;;6.38;1.95;;;;;;;9.02;99.16;100016.25;5074781;28;20044;-68
2024/03/01 12:46:32;;;;;;;5.38;2.03;;;;;;;9.00;99.74;100004.88;5079277;28;20040;-69
2024/03/01 12:49:41;;;;;;;4.43;2.20;;;;;;;8.96;100.00;100002.69;5083982;28;20059;-69
2024/03/01 12:53:07;;;;;;;6.20;1.98;;;;;;;9.00;100.00;100002.94;5086294;28;20562;-69
2024/03/01 12:56:37;;;;;;;5.57;2.00;;;;;;;9.11;100.00;99988.22;5084877;28;20039;-69
2024/03/01 12:59:37;;;;;;;8.65;2.40;;;;;;;9.03;100.00;100002.38;4998362;28;20478;-69
2024/03/01 13:02:49;;;;;;;6.35;2.10;;;;;;;9.14;100.00;99998.53;4995452;28;20046;-68
2024/03/01 13:05:37;;;;;;;5.03;2.10;;;;;;;9.05;99.91;100004.84;5097141;28;20118;-68
2024/03/01 13:08:39;;;;;;;3.30;1.77;;;;;;;9.03;100.00;100004.31;5095172;28;20107;-66
2024/03/01 13:11:28;;;;;;;7.22;2.40;;;;;;;9.02;100.00;100013.53;5109141;28;20078;-67
2024/03/01 13:14:45;;;;;;;6.78;2.30;;;;;;;9.02;100.00;100005.38;5072749;28;20127;-67
2024/03/01 13:18:17;;;;;;;7.45;3.25;;;;;;;9.17;100.00;100014.28;5080089;28;20094;-63
2024/03/01 13:21:44;;;;;;;6.28;2.28;;;;;;;9.11;97.55;100020.81;5029749;28;20053;-66
2024/03/01 13:24:58;;;;;;;5.38;2.00;;;;;;;9.19;98.12;100008.59;5011020;28;20054;-68